Time;durP1;ratioP1;P1;durP2;ratioP2;P2;SDS_P1;SDS_P2;PMS_P1;PMS_P2;Temp;Humidity;BMP_temperature;BMP_pressure;BME280_temperature;BME280_humidity;BME280_pressure;Samples;Min_cycle;Max_cycle;Signal;HPM_P1;HPM_P2
2022/03/28 00:00:05;;;;;;;51.78;29.83;;;;;;;7.97;56.92;100883.19;5064015;28;20116;-80
2022/03/28 00:02:33;;;;;;;51.40;30.07;;;;;;;7.96;56.47;100881.50;5054661;28;20041;-79
2022/03/28 00:04:58;;;;;;;60.10;31.92;;;;;;;7.92;56.90;100882.63;5053311;28;20066;-81
2022/03/28 00:07:24;;;;;;;55.75;31.30;;;;;;;7.87;57.25;100874.19;5053352;28;20500;-81
2022/03/28 00:09:50;;;;;;;56.80;31.13;;;;;;;7.88;56.96;100873.25;5053177;28;20465;-80
2022/03/28 00:12:16;;;;;;;55.33;31.02;;;;;;;7.93;56.94;100872.03;5014837;28;20029;-80
2022/03/28 00:14:41;;;;;;;54.90;30.92;;;;;;;7.90;57.05;100868.72;5018377;28;20050;-80
2022/03/28 00:17:08;;;;;;;51.75;31.10;;;;;;;7.82;57.38;100875.31;5052658;28;20064;-80
2022/03/28 00:19:33;;;;;;;57.85;31.25;;;;;;;7.79;57.66;100867.59;5052495;28;20090;-79
2022/03/28 00:22:00;;;;;;;54.50;31.48;;;;;;;7.79;57.81;100867.59;5016648;28;20481;-80
2022/03/28 00:24:26;;;;;;;57.35;30.45;;;;;;;7.78;57.86;100865.06;5052715;28;20032;-80
2022/03/28 00:26:51;;;;;;;59.30;32.45;;;;;;;7.61;58.34;100858.22;5034781;28;20040;-80
2022/03/28 00:29:17;;;;;;;60.33;33.05;;;;;;;7.37;59.56;100860.50;5052331;28;20029;-80
2022/03/28 00:31:42;;;;;;;58.88;31.17;;;;;;;7.16;60.69;100855.69;5034461;28;20058;-79
2022/03/28 00:34:08;;;;;;;60.10;31.90;;;;;;;6.98;61.69;100858.44;5017458;28;20128;-79
2022/03/28 00:36:34;;;;;;;57.08;32.03;;;;;;;6.87;62.94;100850.34;5016839;28;20100;-78
2022/03/28 00:38:59;;;;;;;59.58;31.85;;;;;;;6.83;62.80;100848.00;5018341;28;20430;-79
2022/03/28 00:41:26;;;;;;;57.78;32.42;;;;;;;6.91;62.42;100846.59;5052355;28;20108;-80
2022/03/28 00:43:56;;;;;;;54.22;30.63;;;;;;;7.04;62.20;100838.88;5017943;28;20029;-79
2022/03/28 00:46:22;;;;;;;59.83;31.23;;;;;;;7.16;61.92;100845.19;5015267;28;20033;-80
2022/03/28 00:48:49;;;;;;;54.83;31.88;;;;;;;7.22;61.17;100839.56;5015573;28;20147;-80
2022/03/28 00:51:17;;;;;;;55.90;31.13;;;;;;;7.27;61.17;100842.78;5018014;28;20073;-80
2022/03/28 00:53:42;;;;;;;52.35;30.30;;;;;;;7.32;61.05;100840.72;5014802;28;20433;-80
2022/03/28 00:56:08;;;;;;;55.05;32.88;;;;;;;7.31;61.29;100836.38;5018193;28;20028;-80
2022/03/28 00:58:34;;;;;;;52.13;31.17;;;;;;;7.29;60.89;100827.78;5015751;28;20043;-79
2022/03/28 01:00:59;;;;;;;59.30;31.60;;;;;;;7.30;61.01;100825.03;5032098;28;20040;-80
2022/03/28 01:03:28;;;;;;;58.70;32.53;;;;;;;7.29;61.23;100826.00;5031545;28;20503;-79
2022/03/28 01:05:54;;;;;;;58.17;31.45;;;;;;;7.29;61.06;100833.03;5034194;28;20033;-80
2022/03/28 01:08:20;;;;;;;60.28;32.28;;;;;;;7.29;60.62;100830.41;5034050;28;20100;-78
2022/03/28 01:10:48;;;;;;;56.97;31.65;;;;;;;7.32;60.50;100824.97;5034528;28;20060;-79
2022/03/28 01:13:15;;;;;;;59.92;32.90;;;;;;;7.31;60.77;100823.25;5052250;28;20036;-80
2022/03/28 01:15:41;;;;;;;55.58;31.35;;;;;;;7.31;60.58;100825.88;5048275;28;20127;-80
2022/03/28 01:18:06;;;;;;;55.38;32.38;;;;;;;7.24;60.89;100828.06;5034216;28;20145;-79
2022/03/28 01:20:34;;;;;;;60.88;32.47;;;;;;;7.17;61.20;100826.72;5051532;28;20044;-80
2022/03/28 01:23:00;;;;;;;58.03;33.15;;;;;;;7.12;61.06;100827.94;5052799;28;20033;-80
2022/03/28 01:25:28;;;;;;;59.60;32.60;;;;;;;7.12;61.09;100825.31;5043290;28;20051;-80
2022/03/28 01:40:40;;;;;;;61.42;33.30;;;;;;;6.99;61.83;100802.41;5048276;28;20091;-81
2022/03/28 01:47:03;;;;;;;55.95;31.52;;;;;;;6.89;62.72;100795.97;5049062;28;20040;-79
2022/03/28 02:22:48;;;;;;;56.15;30.33;;;;;;;5.74;69.42;100763.16;4947187;29;20042;-79
2022/03/28 02:33:23;;;;;;;58.47;32.33;;;;;;;5.38;71.55;100757.28;4928083;29;20114;-78
2022/03/28 02:40:47;;;;;;;60.72;32.88;;;;;;;5.16;73.61;100742.69;5048364;28;20150;-80
2022/03/28 02:43:15;;;;;;;58.10;32.00;;;;;;;5.12;72.81;100743.78;5046671;28;20499;-79
2022/03/28 02:45:40;;;;;;;59.50;33.40;;;;;;;5.10;72.83;100735.16;5050180;28;20107;-79
2022/03/28 02:48:06;;;;;;;63.20;33.78;;;;;;;5.09;73.08;100741.31;5050276;28;20497;-79
2022/03/28 02:50:34;;;;;;;61.92;32.67;;;;;;;5.09;73.07;100736.09;5049783;28;20116;-80
2022/03/28 02:52:59;;;;;;;60.47;33.47;;;;;;;5.17;72.98;100739.16;5050710;28;20350;-81
2022/03/28 02:55:24;;;;;;;50.40;31.83;;;;;;;5.20;72.35;100732.91;5049879;28;20115;-80
2022/03/28 02:57:51;;;;;;;55.65;32.00;;;;;;;5.16;71.92;100736.63;5032588;28;20036;-78
2022/03/28 03:00:17;;;;;;;58.28;33.60;;;;;;;5.15;71.87;100735.78;5051130;28;20108;-79
2022/03/28 03:02:44;;;;;;;57.80;32.65;;;;;;;5.12;72.34;100741.19;5051460;28;20032;-79
2022/03/28 03:05:11;;;;;;;60.90;34.22;;;;;;;5.08;72.49;100736.16;5054068;28;20061;-77
2022/03/28 03:07:37;;;;;;;60.20;32.85;;;;;;;5.07;72.76;100735.31;5036260;28;20041;-80
2022/03/28 03:10:05;;;;;;;64.78;35.10;;;;;;;4.88;73.48;100734.59;5036864;28;20074;-78
2022/03/28 03:12:31;;;;;;;56.53;32.17;;;;;;;4.64;75.35;100734.06;5054617;28;20036;-80
2022/03/28 03:14:57;;;;;;;59.03;34.65;;;;;;;4.57;75.66;100727.44;5020748;28;20095;-79
2022/03/28 03:17:22;;;;;;;56.92;32.65;;;;;;;4.49;75.94;100733.03;5054300;28;20033;-79
2022/03/28 03:19:48;;;;;;;58.13;33.13;;;;;;;4.47;76.43;100729.66;5036602;28;20021;-79
2022/03/28 03:22:14;;;;;;;57.42;33.38;;;;;;;4.48;76.40;100733.09;5018070;28;20474;-79
2022/03/28 03:24:44;;;;;;;55.45;33.33;;;;;;;4.54;76.13;100725.81;5052420;28;20036;-79
2022/03/28 03:27:11;;;;;;;57.97;32.42;;;;;;;4.60;75.76;100729.03;5071320;28;20029;-79
2022/03/28 03:29:37;;;;;;;63.75;34.75;;;;;;;4.66;75.48;100731.34;5076484;28;20029;-78
2022/03/28 03:32:04;;;;;;;59.97;33.50;;;;;;;4.73;75.33;100722.25;5059261;28;20432;-79
2022/03/28 03:34:31;;;;;;;65.53;34.13;;;;;;;4.74;75.22;100729.19;5073839;28;20536;-79
2022/03/28 03:36:56;;;;;;;59.28;34.20;;;;;;;4.66;75.84;100731.34;5071280;28;20040;-80
2022/03/28 03:39:22;;;;;;;61.08;34.10;;;;;;;4.58;76.29;100728.28;5065366;28;20055;-79
2022/03/28 03:41:49;;;;;;;59.78;34.65;;;;;;;4.48;76.99;100733.94;5058905;28;20101;-80
2022/03/28 03:44:15;;;;;;;64.93;34.58;;;;;;;4.44;76.79;100736.78;5016489;28;20584;-80
2022/03/28 03:46:40;;;;;;;62.05;34.38;;;;;;;4.46;77.05;100735.81;5053928;28;20088;-80
2022/03/28 03:49:06;;;;;;;65.40;34.47;;;;;;;4.53;76.36;100733.75;5050031;28;20044;-80
2022/03/28 03:51:31;;;;;;;64.15;35.33;;;;;;;4.53;76.26;100731.13;5054569;28;20039;-80
2022/03/28 03:53:57;;;;;;;64.28;34.35;;;;;;;4.51;76.69;100732.97;5070951;28;20047;-79
2022/03/28 03:56:23;;;;;;;64.80;35.05;;;;;;;4.41;77.33;100737.81;5071959;28;20450;-80
2022/03/28 03:58:48;;;;;;;61.97;34.50;;;;;;;4.33;77.86;100733.84;5070643;28;20079;-79
2022/03/28 04:01:14;;;;;;;71.45;35.67;;;;;;;4.26;77.93;100735.91;5071257;28;20036;-80
2022/03/28 04:03:39;;;;;;;61.90;35.13;;;;;;;4.23;78.66;100732.63;5071189;28;20036;-78
2022/03/28 04:06:05;;;;;;;64.90;35.47;;;;;;;4.16;79.52;100737.28;5067802;28;20048;-80
2022/03/28 04:08:31;;;;;;;61.83;35.13;;;;;;;4.18;79.10;100739.84;5058582;28;20033;-79
2022/03/28 04:10:57;;;;;;;60.05;36.17;;;;;;;4.24;78.82;100735.13;5036733;28;20404;-79
2022/03/28 04:13:23;;;;;;;67.65;36.05;;;;;;;4.24;78.41;100729.91;5052912;28;20029;-79
2022/03/28 04:15:48;;;;;;;63.42;34.00;;;;;;;4.23;78.33;100733.47;5052367;28;20037;-79
2022/03/28 04:18:14;;;;;;;61.72;33.42;;;;;;;4.18;78.80;100735.47;5034467;28;20037;-79
2022/03/28 04:20:40;;;;;;;65.72;33.72;;;;;;;4.12;78.81;100741.81;5052937;28;20033;-79
2022/03/28 04:23:05;;;;;;;66.75;34.53;;;;;;;4.13;78.67;100745.25;5035591;28;20446;-79
2022/03/28 04:25:31;;;;;;;59.25;34.22;;;;;;;4.08;78.81;100742.88;5052888;28;20036;-79
2022/03/28 04:27:56;;;;;;;56.63;33.92;;;;;;;4.17;78.78;100744.22;5035335;28;20037;-81
2022/03/28 04:30:23;;;;;;;59.30;33.80;;;;;;;4.23;78.50;100738.69;5034809;28;20146;-80
2022/03/28 04:32:49;;;;;;;59.58;33.65;;;;;;;4.28;77.99;100730.63;5052495;28;20056;-80
2022/03/28 04:35:15;;;;;;;60.53;33.78;;;;;;;4.34;77.54;100731.19;5052191;28;20067;-80
2022/03/28 04:37:42;;;;;;;58.33;33.78;;;;;;;4.40;76.91;100736.09;5034340;28;20144;-80
2022/03/28 04:40:12;;;;;;;57.10;33.67;;;;;;;4.45;76.56;100734.09;5052365;28;20031;-79
2022/03/28 04:42:39;;;;;;;62.45;33.60;;;;;;;4.51;75.83;100732.97;5034012;28;20143;-79
2022/03/28 04:45:06;;;;;;;57.53;34.42;;;;;;;4.51;75.43;100733.81;5033898;28;20354;-80
2022/03/28 04:47:32;;;;;;;63.17;34.60;;;;;;;4.52;75.19;100729.44;5052314;28;20039;-81
2022/03/28 04:49:58;;;;;;;60.85;32.60;;;;;;;4.51;75.01;100731.19;5053036;28;20036;-78
2022/03/28 04:52:23;;;;;;;62.10;33.90;;;;;;;4.43;74.91;100740.31;5051425;28;20079;-78
2022/03/28 04:54:49;;;;;;;60.95;34.03;;;;;;;4.35;75.45;100730.25;5034197;28;20094;-80
2022/03/28 04:57:14;;;;;;;59.50;33.95;;;;;;;4.27;75.87;100724.56;5051826;28;20488;-80
2022/03/28 04:59:40;;;;;;;60.85;34.60;;;;;;;4.25;75.71;100731.59;5034306;28;20040;-80
2022/03/28 05:02:06;;;;;;;53.92;32.20;;;;;;;4.20;76.03;100733.59;5051856;28;20043;-80
2022/03/28 05:04:32;;;;;;;53.80;32.13;;;;;;;4.17;75.73;100733.75;5052978;28;20114;-80
2022/03/28 05:06:57;;;;;;;64.25;34.85;;;;;;;4.14;76.34;100736.50;5036736;28;20438;-80
2022/03/28 05:09:23;;;;;;;59.25;33.17;;;;;;;4.12;76.89;100735.75;5051822;28;20075;-80
2022/03/28 05:11:48;;;;;;;56.92;33.83;;;;;;;4.09;76.87;100735.88;5034172;28;20097;-79
2022/03/28 05:14:14;;;;;;;60.35;34.63;;;;;;;4.10;76.79;100743.66;5033602;28;20029;-79
2022/03/28 05:16:40;;;;;;;56.95;32.22;;;;;;;4.13;76.56;100740.88;5053849;28;20061;-79
2022/03/28 05:19:05;;;;;;;65.97;34.67;;;;;;;4.12;76.52;100746.22;5051461;28;20106;-79
2022/03/28 05:21:31;;;;;;;56.83;33.88;;;;;;;4.12;76.66;100735.75;5051136;28;20087;-78
2022/03/28 05:23:56;;;;;;;59.92;33.72;;;;;;;4.07;76.66;100741.19;5051626;28;20139;-78
2022/03/28 05:26:22;;;;;;;60.00;35.15;;;;;;;4.03;77.00;100747.47;5049867;28;20108;-81
2022/03/28 05:28:47;;;;;;;62.13;35.08;;;;;;;3.96;77.54;100747.81;5051579;28;20351;-81
2022/03/28 05:31:13;;;;;;;60.90;33.75;;;;;;;3.99;77.44;100750.31;5051899;28;20033;-80
2022/03/28 05:33:38;;;;;;;56.92;33.42;;;;;;;3.95;77.60;100748.75;5054618;28;20437;-79
2022/03/28 05:36:05;;;;;;;62.15;34.17;;;;;;;3.93;77.60;100750.59;5063112;28;20491;-80
2022/03/28 05:38:31;;;;;;;57.42;34.60;;;;;;;3.95;77.89;100748.75;5066218;28;20020;-79
2022/03/28 05:40:57;;;;;;;60.38;34.03;;;;;;;3.95;77.43;100749.59;5065784;28;20025;-77
2022/03/28 05:43:24;;;;;;;59.88;34.67;;;;;;;3.88;77.59;100757.81;5069630;28;20112;-79
2022/03/28 05:45:50;;;;;;;57.30;34.15;;;;;;;3.70;78.07;100757.72;5043501;28;20109;-80
2022/03/28 05:48:16;;;;;;;60.60;34.25;;;;;;;3.63;78.62;100756.31;5052008;28;20349;-80
2022/03/28 05:50:42;;;;;;;58.83;33.30;;;;;;;3.66;78.80;100765.75;5032691;28;20095;-81
2022/03/28 05:53:07;;;;;;;59.70;33.08;;;;;;;3.68;78.58;100759.56;5046845;28;20045;-79
2022/03/28 05:55:33;;;;;;;60.42;33.80;;;;;;;3.81;78.35;100761.59;5050817;28;20632;-80
2022/03/28 05:57:58;;;;;;;58.42;32.47;;;;;;;3.88;77.78;100757.81;5033778;28;20064;-78
2022/03/28 06:00:24;;;;;;;61.60;35.00;;;;;;;3.80;78.28;100757.28;5050907;28;20029;-80
2022/03/28 06:02:49;;;;;;;62.92;34.08;;;;;;;3.76;78.46;100759.22;5051318;28;20369;-80
2022/03/28 06:05:15;;;;;;;61.00;35.88;;;;;;;3.78;78.86;100761.72;5051312;28;20444;-80
2022/03/28 06:07:41;;;;;;;60.85;34.63;;;;;;;3.84;78.97;100756.22;5051244;28;20033;-79
2022/03/28 06:10:07;;;;;;;60.97;35.33;;;;;;;3.95;78.69;100759.19;5033118;28;20048;-78
2022/03/28 06:12:32;;;;;;;57.28;33.83;;;;;;;4.01;78.69;100762.34;5016536;28;20485;-79
2022/03/28 06:14:58;;;;;;;61.38;35.15;;;;;;;4.13;78.65;100759.16;5034059;28;20037;-82
2022/03/28 06:17:25;;;;;;;64.88;35.95;;;;;;;4.27;77.73;100755.06;5051560;28;20223;-81
2022/03/28 06:19:52;;;;;;;62.53;34.25;;;;;;;4.31;77.17;100751.38;5034513;28;20029;-82
2022/03/28 06:22:18;;;;;;;62.15;35.50;;;;;;;4.41;76.79;100758.72;5034306;28;20037;-83
2022/03/28 06:24:45;;;;;;;64.05;35.13;;;;;;;4.53;75.77;100752.88;5052412;28;20381;-82
2022/03/28 06:27:10;;;;;;;64.32;35.80;;;;;;;4.65;75.71;100750.59;5056834;28;20033;-84
2022/03/28 06:29:36;;;;;;;60.05;34.75;;;;;;;4.71;75.57;100758.94;5062689;28;20095;-82
2022/03/28 06:32:01;;;;;;;66.50;35.13;;;;;;;4.66;75.78;100760.94;5035375;28;20121;-82
2022/03/28 06:34:27;;;;;;;59.15;35.40;;;;;;;4.53;76.63;100752.88;5051074;28;20037;-81
2022/03/28 06:36:52;;;;;;;62.75;35.03;;;;;;;4.40;77.06;100761.38;5051064;28;20045;-81
2022/03/28 06:39:18;;;;;;;60.35;34.58;;;;;;;4.29;78.38;100759.31;5051976;28;20040;-79
2022/03/28 06:41:43;;;;;;;68.68;34.67;;;;;;;4.27;78.51;100771.59;5052855;28;20041;-79
2022/03/28 06:44:11;;;;;;;61.78;34.50;;;;;;;4.31;78.61;100772.28;5033293;28;20033;-78
2022/03/28 06:46:42;;;;;;;57.25;33.38;;;;;;;4.29;78.63;100768.91;5054677;28;20060;-80
2022/03/28 06:49:08;;;;;;;59.60;35.05;;;;;;;4.34;78.29;100770.38;5055093;28;20382;-78
2022/03/28 06:51:34;;;;;;;63.72;36.25;;;;;;;4.57;77.45;100764.03;5036607;28;20037;-80
2022/03/28 06:54:02;;;;;;;61.92;35.40;;;;;;;4.85;75.84;100771.34;5037189;28;20107;-80
2022/03/28 06:56:28;;;;;;;61.97;34.50;;;;;;;5.04;75.04;100772.09;5054432;28;20025;-78
2022/03/28 06:58:53;;;;;;;60.90;35.35;;;;;;;5.19;74.28;100778.31;5054405;28;20361;-80
2022/03/28 07:01:19;;;;;;;58.88;35.67;;;;;;;5.27;73.72;100777.00;5036741;28;20021;-80
2022/03/28 07:03:45;;;;;;;60.28;34.70;;;;;;;5.45;73.31;100764.72;5054390;28;20139;-77
2022/03/28 07:06:11;;;;;;;60.95;35.47;;;;;;;5.64;71.94;100759.38;5055319;28;20032;-79
2022/03/28 07:08:36;;;;;;;58.85;34.15;;;;;;;5.85;71.42;100758.19;5037547;28;20051;-78
2022/03/28 07:11:02;;;;;;;64.85;35.10;;;;;;;6.06;70.27;100762.31;5073222;28;20033;-80
2022/03/28 07:13:28;;;;;;;65.35;36.13;;;;;;;6.25;68.94;100756.84;5074789;28;20032;-77
2022/03/28 07:15:54;;;;;;;63.15;36.05;;;;;;;6.41;68.62;100759.47;5046249;28;20057;-75
2022/03/28 07:18:19;;;;;;;64.43;36.20;;;;;;;6.57;67.36;100758.50;5058962;28;20025;-78
2022/03/28 07:20:45;;;;;;;61.33;35.97;;;;;;;6.80;66.48;100756.31;5058190;28;20025;-84
2022/03/28 07:23:12;;;;;;;64.25;37.55;;;;;;;7.09;64.29;100754.59;5055040;28;20033;-79
2022/03/28 07:25:38;;;;;;;66.65;38.75;;;;;;;7.42;63.16;100757.84;5054830;28;20025;-80
2022/03/28 07:28:08;;;;;;;68.03;37.88;;;;;;;7.55;61.83;100758.75;5067698;28;20032;-79
2022/03/28 07:30:34;;;;;;;;;;;;;;;7.55;61.34;100753.50;5062515;28;20077;-83
2022/03/28 07:33:02;;;;;;;60.35;36.08;;;;;;;7.66;61.06;100748.44;5055521;28;19936;-81
2022/03/28 07:35:32;;;;;;;70.15;36.40;;;;;;;7.70;60.04;100747.31;5055258;28;20025;-75
2022/03/28 07:37:58;;;;;;;60.42;35.83;;;;;;;7.84;59.48;100749.06;5054597;28;20124;-81
2022/03/28 07:40:25;;;;;;;64.78;34.95;;;;;;;7.98;58.65;100756.09;5035729;28;20045;-77
2022/03/28 07:42:51;;;;;;;60.75;36.80;;;;;;;8.10;57.46;100755.31;5053677;28;20056;-78
2022/03/28 07:45:17;;;;;;;61.10;35.35;;;;;;;8.21;57.48;100752.84;5052925;28;20029;-81
2022/03/28 07:47:43;;;;;;;59.85;32.92;;;;;;;8.40;55.77;100753.38;5035847;28;20068;-79
2022/03/28 07:50:10;;;;;;;59.60;32.95;;;;;;;8.50;54.82;100753.59;5033907;28;20368;-78
2022/03/28 07:52:36;;;;;;;56.13;32.83;;;;;;;8.65;54.34;100743.88;5052275;28;20049;-78
2022/03/28 07:55:03;;;;;;;56.28;33.28;;;;;;;8.74;53.60;100754.63;5052366;28;20032;-80
2022/03/28 07:57:29;;;;;;;53.03;31.30;;;;;;;8.87;53.19;100746.75;5052305;28;20453;-77
2022/03/28 07:59:55;;;;;;;53.53;32.72;;;;;;;8.92;52.35;100755.19;5052460;28;20040;-78
2022/03/28 08:02:20;;;;;;;51.55;31.27;;;;;;;8.96;51.58;100751.38;5017784;28;20035;-77
2022/03/28 08:04:46;;;;;;;54.13;32.85;;;;;;;9.02;52.09;100749.19;5052585;28;20025;-80
2022/03/28 08:07:12;;;;;;;49.63;31.38;;;;;;;9.17;51.50;100755.22;5051458;28;20043;-78
2022/03/28 08:09:39;;;;;;;51.20;30.92;;;;;;;9.37;52.00;100751.19;5052682;28;20051;-77
2022/03/28 08:12:06;;;;;;;53.78;30.95;;;;;;;9.57;51.63;100747.19;5052268;28;20124;-80
2022/03/28 08:14:32;;;;;;;49.63;28.98;;;;;;;9.69;49.53;100736.63;5017926;28;20091;-79
2022/03/28 08:16:58;;;;;;;47.13;29.05;;;;;;;9.79;48.32;100742.06;5034229;28;20021;-79
2022/03/28 08:19:24;;;;;;;47.80;28.65;;;;;;;9.88;47.96;100741.44;5052292;28;20033;-81
2022/03/28 08:21:50;;;;;;;47.22;28.60;;;;;;;10.07;48.53;100736.50;5052633;28;20025;-80
2022/03/28 08:24:16;;;;;;;50.25;29.60;;;;;;;10.26;47.24;100741.31;5051288;28;20024;-79
2022/03/28 08:26:41;;;;;;;45.50;28.80;;;;;;;10.32;46.90;100737.41;5052721;28;20552;-79
2022/03/28 08:29:07;;;;;;;44.75;27.80;;;;;;;10.53;46.63;100743.75;5052863;28;20047;-78
2022/03/28 08:31:33;;;;;;;49.92;29.67;;;;;;;10.76;46.90;100739.38;5049892;28;20033;-76
2022/03/28 08:33:59;;;;;;;45.85;29.02;;;;;;;10.95;46.45;100751.09;5032249;28;20639;-77
2022/03/28 08:36:24;;;;;;;52.97;30.90;;;;;;;11.03;45.60;100743.41;5049302;28;20045;-77
2022/03/28 08:38:50;;;;;;;47.80;29.42;;;;;;;11.19;45.35;100737.78;5052268;28;20104;-79
2022/03/28 08:41:18;;;;;;;48.45;28.48;;;;;;;11.37;45.70;100738.19;5033809;28;20601;-78
2022/03/28 08:43:45;;;;;;;47.90;29.63;;;;;;;11.55;44.77;100743.84;5052159;28;20089;-78
2022/03/28 08:46:12;;;;;;;41.25;26.95;;;;;;;11.74;44.42;100739.66;5034639;28;20028;-78
2022/03/28 08:48:41;;;;;;;45.80;29.00;;;;;;;11.92;43.96;100745.28;5052517;28;20400;-78
2022/03/28 08:51:09;;;;;;;46.55;28.83;;;;;;;12.09;43.43;100743.94;5053252;28;20029;-80
2022/03/28 08:53:37;;;;;;;48.25;29.00;;;;;;;12.25;43.25;100747.03;5033784;28;20107;-82
2022/03/28 08:56:04;;;;;;;47.50;29.15;;;;;;;12.41;42.32;100739.53;5051144;28;20037;-78
2022/03/28 08:58:30;;;;;;;45.38;28.75;;;;;;;12.59;41.95;100735.38;5051504;28;20033;-78
2022/03/28 09:00:57;;;;;;;45.58;27.38;;;;;;;12.76;41.36;100733.13;5052249;28;20029;-81
2022/03/28 09:03:37;;;;;;;38.28;26.25;;;;;;;12.92;40.12;100739.66;5051292;28;20120;-79
2022/03/28 09:06:31;;;;;;;41.38;27.33;;;;;;;13.01;38.86;100728.28;5052057;28;20041;-76
2022/03/28 09:09:12;;;;;;;38.20;26.27;;;;;;;13.20;39.13;100724.91;5043246;28;20397;-78
2022/03/28 09:11:44;;;;;;;41.78;27.08;;;;;;;13.33;38.84;100719.41;5052598;28;20032;-81
2022/03/28 09:14:30;;;;;;;44.35;26.73;;;;;;;13.49;38.11;100723.25;5034171;28;20698;-76
2022/03/28 09:17:10;;;;;;;48.00;27.27;;;;;;;13.60;37.71;100724.16;5049588;28;20037;-78
2022/03/28 09:20:02;;;;;;;41.83;26.95;;;;;;;13.65;37.39;100719.28;5034912;28;20021;-78
2022/03/28 09:22:30;;;;;;;43.65;27.13;;;;;;;13.75;36.94;100713.03;5050534;28;20052;-80
2022/03/28 09:24:58;;;;;;;39.00;25.00;;;;;;;13.89;36.51;100709.16;5034109;28;20330;-80
2022/03/28 09:27:28;;;;;;;38.10;25.20;;;;;;;14.04;35.88;100706.94;5052203;28;20397;-78
2022/03/28 09:29:57;;;;;;;48.65;27.45;;;;;;;14.15;35.82;100699.72;5052605;28;20029;-81
2022/03/28 09:32:28;;;;;;;43.58;26.83;;;;;;;14.28;35.71;100700.28;5050906;28;20709;-77
2022/03/28 09:35:08;;;;;;;40.80;26.17;;;;;;;14.39;34.82;100702.00;5053524;28;20037;-78
2022/03/28 09:38:08;;;;;;;41.13;27.75;;;;;;;14.49;34.67;100696.69;5053712;28;20040;-77
2022/03/28 09:40:46;;;;;;;42.70;26.33;;;;;;;14.63;34.72;100693.59;5054566;28;20028;-77
2022/03/28 09:43:18;;;;;;;47.10;27.13;;;;;;;14.75;34.44;100692.47;5035252;28;20029;-78
2022/03/28 09:45:53;;;;;;;43.92;28.20;;;;;;;14.85;34.04;100693.28;5057449;28;20333;-78
2022/03/28 09:48:20;;;;;;;41.83;27.02;;;;;;;14.92;33.94;100693.56;5061296;28;20039;-79
2022/03/28 09:50:48;;;;;;;42.40;25.80;;;;;;;15.00;33.56;100691.88;5058272;28;20029;-79
2022/03/28 09:53:27;;;;;;;36.78;25.17;;;;;;;15.04;33.09;100690.59;5052673;28;20044;-79
2022/03/28 09:55:56;;;;;;;41.97;26.35;;;;;;;15.09;32.75;100685.69;5042631;28;20082;-81
2022/03/28 09:58:47;;;;;;;44.70;26.75;;;;;;;15.19;32.41;100675.03;5036924;28;20092;-78
2022/03/28 10:01:19;;;;;;;42.70;27.80;;;;;;;15.26;32.30;100675.25;5019150;28;20037;-80
2022/03/28 10:03:51;;;;;;;39.17;25.48;;;;;;;15.33;32.41;100671.03;5049721;28;20075;-80
2022/03/28 10:06:19;;;;;;;39.78;26.23;;;;;;;15.37;31.65;100672.44;5034738;28;20036;-79
2022/03/28 10:08:45;;;;;;;39.58;25.48;;;;;;;15.37;31.85;100657.34;5047562;28;20051;-77
2022/03/28 10:11:11;;;;;;;42.38;25.48;;;;;;;15.41;31.38;100652.56;5050783;28;20029;-81
2022/03/28 10:13:39;;;;;;;38.33;25.40;;;;;;;15.51;31.09;100653.34;5052364;28;20036;-79
2022/03/28 10:16:25;;;;;;;42.08;25.27;;;;;;;15.64;30.91;100653.84;5057214;28;20095;-78
2022/03/28 10:18:53;;;;;;;37.45;24.30;;;;;;;15.79;30.82;100651.50;5018252;28;20033;-80
2022/03/28 10:21:34;;;;;;;37.20;24.30;;;;;;;15.93;31.10;100649.19;4809875;28;10000559;-78
2022/03/28 10:24:14;;;;;;;45.38;26.85;;;;;;;16.05;30.88;100643.66;5041681;28;20242;-80
2022/03/28 10:26:43;;;;;;;44.60;26.45;;;;;;;16.15;30.81;100637.25;5034646;28;20128;-78
2022/03/28 10:29:13;;;;;;;40.33;25.10;;;;;;;16.19;30.48;100622.66;5052454;28;20040;-80
2022/03/28 10:31:56;;;;;;;44.25;25.98;;;;;;;16.19;29.74;100621.81;5055087;28;20504;-81
2022/03/28 10:34:41;;;;;;;43.75;26.67;;;;;;;16.23;29.21;100620.53;5030287;28;20044;-79
2022/03/28 10:37:34;;;;;;;43.28;24.88;;;;;;;16.30;29.35;100616.25;5054437;28;20040;-80
2022/03/28 10:40:11;;;;;;;38.92;24.83;;;;;;;16.38;29.04;100610.97;5048654;28;20064;-78
2022/03/28 10:42:38;;;;;;;41.88;25.33;;;;;;;16.44;29.00;100604.19;5058467;28;20041;-78
2022/03/28 10:45:08;;;;;;;41.53;26.33;;;;;;;16.52;28.87;100602.44;5037364;28;20687;-79
2022/03/28 10:47:50;;;;;;;38.57;24.10;;;;;;;16.55;28.76;100591.47;5053057;28;20040;-82
2022/03/28 10:50:24;;;;;;;39.97;23.33;;;;;;;16.62;28.43;100597.03;5048596;28;20301;-79
2022/03/28 10:53:11;;;;;;;38.70;25.17;;;;;;;16.72;28.24;100598.63;5048327;28;20464;-79
2022/03/28 10:55:42;;;;;;;35.58;22.42;;;;;;;16.79;28.55;100594.31;5035929;28;20469;-81
2022/03/28 10:58:23;;;;;;;34.33;22.45;;;;;;;16.91;29.10;100588.72;5054439;28;20037;-82
2022/03/28 11:01:07;;;;;;;34.20;22.83;;;;;;;17.07;28.48;100580.81;5052157;28;20139;-79
2022/03/28 11:04:04;;;;;;;35.05;23.00;;;;;;;17.18;28.27;100572.53;5055161;28;20036;-79
2022/03/28 11:06:52;;;;;;;34.83;21.52;;;;;;;17.27;27.78;100566.22;5035165;28;20500;-82
2022/03/28 11:09:43;;;;;;;32.55;20.60;;;;;;;17.33;27.12;100570.91;5051416;28;20037;-78
2022/03/28 11:12:10;;;;;;;33.40;21.40;;;;;;;17.40;27.27;100557.75;5056741;28;20047;-79
2022/03/28 11:14:39;;;;;;;36.58;22.17;;;;;;;17.50;26.70;100555.78;5054321;28;20037;-77
2022/03/28 11:17:18;;;;;;;28.30;20.35;;;;;;;17.61;25.86;100554.69;5059899;28;20119;-78
2022/03/28 11:20:00;;;;;;;31.18;19.17;;;;;;;17.69;25.34;100546.69;4709796;28;10000934;-77
2022/03/28 11:22:56;;;;;;;30.90;20.23;;;;;;;17.82;25.12;100539.03;4705938;28;10000392;-76
2022/03/28 11:25:33;;;;;;;26.88;18.77;;;;;;;17.93;24.88;100534.19;5034212;28;20047;-78
2022/03/28 11:28:11;;;;;;;29.63;19.00;;;;;;;18.01;24.17;100530.69;5049182;28;20397;-78
2022/03/28 11:30:49;;;;;;;32.13;17.10;;;;;;;18.05;23.76;100537.38;5052460;28;20481;-77
2022/03/28 11:33:21;;;;;;;23.33;16.63;;;;;;;18.11;23.48;100523.34;5052051;28;20045;-78
2022/03/28 11:35:56;;;;;;;26.17;18.20;;;;;;;18.20;23.41;100522.31;5049425;28;20029;-78
2022/03/28 11:38:27;;;;;;;29.83;17.95;;;;;;;18.23;23.43;100511.31;5054872;28;20072;-80
2022/03/28 11:40:53;;;;;;;28.55;17.77;;;;;;;18.32;23.39;100509.44;5054119;28;20025;-80
2022/03/28 11:43:36;;;;;;;25.40;17.30;;;;;;;18.44;23.23;100501.94;5054194;28;20063;-80
2022/03/28 11:46:24;;;;;;;25.15;17.02;;;;;;;18.55;23.37;100496.28;5049413;28;20037;-77
2022/03/28 11:49:04;;;;;;;25.80;17.75;;;;;;;18.73;22.57;100486.19;5052984;28;20114;-76
2022/03/28 11:51:33;;;;;;;26.02;15.90;;;;;;;18.82;22.43;100479.78;5050996;28;20037;-79
2022/03/28 11:54:04;;;;;;;22.95;14.63;;;;;;;18.94;21.52;100474.88;5057371;28;20025;-77
2022/03/28 11:56:32;;;;;;;17.48;14.48;;;;;;;19.04;20.99;100470.97;5049678;28;20037;-74
2022/03/28 11:59:08;;;;;;;22.17;14.90;;;;;;;19.22;20.93;100471.56;5052488;28;20147;-78
2022/03/28 12:01:38;;;;;;;19.88;14.85;;;;;;;19.40;20.75;100467.78;5046911;28;20072;-76
2022/03/28 12:04:04;;;;;;;18.80;13.10;;;;;;;19.54;20.43;100456.34;5052978;28;20025;-78
2022/03/28 12:06:32;;;;;;;12.40;10.48;;;;;;;19.68;19.79;100444.81;5050125;28;20587;-79
2022/03/28 12:08:58;;;;;;;16.63;11.00;;;;;;;19.76;19.21;100447.44;5053002;28;20025;-80
2022/03/28 12:11:25;;;;;;;16.13;10.95;;;;;;;19.91;18.97;100445.63;5033825;28;20047;-80
2022/03/28 12:13:52;;;;;;;18.00;12.40;;;;;;;20.05;18.69;100444.00;5051266;28;20099;-78
2022/03/28 12:16:20;;;;;;;17.52;14.02;;;;;;;20.11;18.77;100429.03;5052037;28;20045;-80
2022/03/28 12:18:46;;;;;;;20.55;14.32;;;;;;;20.14;19.15;100423.34;5051562;28;20095;-80
2022/03/28 12:21:12;;;;;;;24.17;15.25;;;;;;;20.08;19.05;100418.69;5048649;28;20029;-79
2022/03/28 12:23:38;;;;;;;16.92;14.90;;;;;;;20.12;19.07;100409.28;5051241;28;20099;-81